Eureka Arcata Airport

Current Flights

Info
Name: Eureka Arcata Airport
Identifier:  ACV/KACV
Local Time:  24. Jun 18:30
City
Flights per Day
17 flights
Distance: 638km (396mi)
Punctuality
82% (3 flights per day delayed)
Delay Average: 2 minutes
Current Weather
 13 C (Humidity: 82%)
  11kt (20km/h / 12mph) from 320°
  16km (10 mi.)
 
 METAR KACV 250053Z AUTO 32011KT 10SM CLR 13/10 A2999 RMK AO2 SLP160 T01280100

Current Delays

Departures
N/A
Arrivals
N/A

Destinations

Top Destinations
Airport Flights
per week
Seats
per week
  San Francisco (SFO) 47 2,640 6 377
  Los Angeles (LAX) 29 1,601 4 228
  Sacramento (SMF) 23 - 3 -2
  Denver (DEN) 9 431 1 61
  Sacramento (MHR) 8 - 1 0
  Crescent City (CEC) 2 - 0 0
  Sacramento (MCC) 2 - 0 0
  Santa Rosa (STS) 2 - 0 0
  Sacramento (SAC) 1 - 0 0
  Redding (RDD) 1 - 0 0

Airlines & Planes

Top Airlines
Airline Flights
per Day
Seats
per Day
  SkyWest Airlines 12 672
  Federal Express (FedEx) 3 -3
Reach Air Medical Services 1 -
Redding Aero Enterprises 0 -
Nordwind Airlines 0 -
  Flybe Nordic 0 -
  Nolinor Aviation 0 -
  National Airlines 0 -
  Novair 0 -
Jet Charter Inc ( Franklin Lakes Nj ) 0 -
Top Plane Types
Model Flights Seats
Bombardier CRJ200 8.4/day 397/day 397.8
Cessna C208 4.7/day - -3.033333333333333
Embraer E175 2.3/day 172/day 172.26666666666668
Beech B200 Super King Air 1.3/day - 0
Bombardier CRJ700 1.3/day 91/day 91
Beech E90 King Air 0.4/day - 0
Cirrus SR22 0.3/day - 0